Time;durP1;ratioP1;P1;durP2;ratioP2;P2;SDS_P1;SDS_P2;PMS_P1;PMS_P2;Temp;Humidity;BMP_temperature;BMP_pressure;BME280_temperature;BME280_humidity;BME280_pressure;Samples;Min_cycle;Max_cycle;Signal;HPM_P1;HPM_P2
2022/11/13 00:01:23;;;;;;;;;;;10.30;69.70;;;5.51;100.00;96433.00;4973625;28;19909;-48
2022/11/13 00:03:58;;;;;;;;;;;10.30;69.70;;;5.49;100.00;96430.59;4990391;28;19932;-48
2022/11/13 00:06:24;;;;;;;;;;;10.30;69.70;;;5.56;100.00;96430.56;4989802;28;20391;-51
2022/11/13 00:08:54;;;;;;;;;;;10.30;69.80;;;5.57;100.00;96432.97;4986468;28;19910;-48
2022/11/13 00:11:23;;;;;;;;;;;10.30;69.80;;;5.53;100.00;96430.97;4970840;28;19910;-48
2022/11/13 00:13:52;;;;;;;;;;;10.30;70.60;;;5.55;100.00;96431.59;4969773;28;19916;-50
2022/11/13 00:16:29;;;;;;;;;;;10.30;69.80;;;5.58;100.00;96431.16;4986501;28;20040;-53
2022/11/13 00:19:09;;;;;;;;;;;10.30;69.80;;;5.55;100.00;96426.28;4971186;28;19916;-51
2022/11/13 00:21:35;;;;;;;;;;;10.30;69.80;;;5.54;100.00;96428.09;4955611;28;20523;-49
2022/11/13 00:24:00;;;;;;;;;;;10.30;70.60;;;5.55;100.00;96419.16;4972541;28;19909;-52
2022/11/13 00:26:29;;;;;;;;;;;10.30;69.90;;;5.57;100.00;96422.41;4987870;28;20008;-49
2022/11/13 00:29:02;;;;;;;;;;;10.30;69.90;;;5.56;100.00;96415.50;4986858;28;19921;-50
2022/11/13 00:31:28;;;;;;;;;;;10.30;69.90;;;5.53;100.00;96410.63;4969188;28;20016;-51
2022/11/13 00:33:56;;;;;;;;;;;10.30;69.80;;;5.46;100.00;96417.78;4954678;28;19910;-50
2022/11/13 00:36:28;;;;;;;;;;;10.30;69.80;;;5.41;100.00;96414.97;4970138;28;20327;-54
2022/11/13 00:38:54;;;;;;;;;;;10.30;69.90;;;5.37;100.00;96416.41;4978539;28;19910;-49
2022/11/13 00:41:23;;;;;;;;;;;10.30;69.80;;;5.36;100.00;96406.03;4991074;28;19910;-48
2022/11/13 00:43:52;;;;;;;;;;;10.20;69.70;;;5.41;100.00;96401.75;4986647;28;19945;-50
2022/11/13 00:46:18;;;;;;;;;;;10.20;69.80;;;5.43;100.00;96396.28;4990618;28;19929;-52
2022/11/13 00:48:46;;;;;;;;;;;10.20;69.80;;;5.42;100.00;96395.47;4988435;28;19933;-50
2022/11/13 00:51:12;;;;;;;;;;;10.20;69.80;;;5.46;100.00;96393.22;4971387;28;20012;-48
2022/11/13 00:53:38;;;;;;;;;;;10.20;69.90;;;5.42;100.00;96394.63;4971561;28;19909;-51
2022/11/13 00:56:10;;;;;;;;;;;10.20;69.90;;;5.41;100.00;96391.19;4972101;28;20383;-49
2022/11/13 00:58:44;;;;;;;;;;;10.20;70.00;;;5.44;100.00;96382.84;4994736;28;19913;-53
2022/11/13 01:01:15;;;;;;;;;;;10.20;70.00;;;5.44;100.00;96380.19;4970585;28;19918;-48
2022/11/13 01:03:44;;;;;;;;;;;10.20;70.00;;;5.47;100.00;96378.97;4975114;28;19914;-51
2022/11/13 01:06:26;;;;;;;;;;;10.30;70.10;;;5.48;100.00;96378.72;4974734;28;20008;-49
2022/11/13 01:08:58;;;;;;;;;;;10.30;70.10;;;5.50;100.00;96381.19;4974388;28;20047;-48
2022/11/13 01:11:30;;;;;;;;;;;10.30;70.10;;;5.52;100.00;96371.22;4957600;28;19945;-50
2022/11/13 01:13:56;;;;;;;;;;;10.30;70.10;;;5.54;100.00;96366.50;4980170;28;20311;-54
2022/11/13 01:16:24;;;;;;;;;;;10.30;70.10;;;5.52;100.00;96365.94;4993318;28;19971;-48
2022/11/13 01:18:55;;;;;;;;;;;10.30;70.00;;;5.55;100.00;96368.16;4988335;28;19914;-50
2022/11/13 01:21:25;;;;;;;;;;;10.30;70.00;;;5.53;100.00;96360.41;4982363;28;20288;-48
2022/11/13 01:23:55;;;;;;;;;;;10.30;70.00;;;5.53;100.00;96364.91;4973474;28;19967;-52
2022/11/13 01:26:44;;;;;;;;;;;10.30;70.10;;;5.49;100.00;96356.59;4973435;28;20045;-55
2022/11/13 01:29:12;;;;;;;;;;;10.30;70.80;;;5.41;100.00;96350.75;4989788;28;19988;-54
2022/11/13 01:31:38;;;;;;;;;;;10.30;70.00;;;5.41;100.00;96359.47;4968034;28;19922;-56
2022/11/13 01:34:06;;;;;;;;;;;10.30;70.00;;;5.46;100.00;96349.09;4974644;28;19914;-55
2022/11/13 01:36:33;;;;;;;;;;;10.30;70.00;;;5.45;100.00;96338.72;4987469;28;19963;-58
2022/11/13 01:38:59;;;;;;;;;;;10.30;70.10;;;5.46;100.00;96338.53;4974292;28;19933;-53
2022/11/13 01:41:32;;;;;;;;;;;10.30;70.10;;;5.46;100.00;96335.06;4974267;28;19967;-54
2022/11/13 01:44:01;;;;;;;;;;;10.30;70.10;;;5.40;100.00;96328.00;4973988;28;20308;-53
2022/11/13 01:46:55;;;;;;;;;;;10.30;70.10;;;5.47;100.00;96323.47;4974321;28;19952;-51
2022/11/13 01:49:40;;;;;;;;;;;10.30;70.10;;;5.48;100.00;96328.53;4958221;28;20333;-54
2022/11/13 01:52:21;;;;;;;;;;;10.20;70.10;;;5.52;100.00;96316.53;4973181;28;19923;-52
2022/11/13 01:55:16;;;;;;;;;;;10.30;70.30;;;5.56;100.00;96320.34;4989181;28;19909;-52
2022/11/13 01:57:42;;;;;;;;;;;10.30;70.30;;;5.54;100.00;96313.66;4988698;28;19916;-55
2022/11/13 02:00:26;;;;;;;;;;;10.30;70.30;;;5.56;100.00;96311.63;4992180;28;19909;-50
2022/11/13 02:02:55;;;;;;;;;;;10.30;70.30;;;5.51;100.00;96300.88;4973174;28;20369;-49
2022/11/13 02:05:26;;;;;;;;;;;10.30;70.20;;;5.47;100.00;96300.50;4969670;28;20043;-53
2022/11/13 02:07:55;;;;;;;;;;;10.30;70.20;;;5.52;100.00;96302.50;4970334;28;19941;-55
2022/11/13 02:10:21;;;;;;;;;;;10.30;70.20;;;5.53;100.00;96296.19;4993236;28;20312;-55
2022/11/13 02:12:57;;;;;;;;;;;10.30;70.20;;;5.50;100.00;96305.34;4989124;28;19909;-53
2022/11/13 02:15:27;;;;;;;;;;;10.30;70.10;;;5.55;100.00;96307.38;4972672;28;19910;-51
2022/11/13 02:18:00;;;;;;;;;;;10.30;70.10;;;5.60;100.00;96302.22;4988857;28;19916;-52
2022/11/13 02:20:46;;;;;;;;;;;10.40;70.20;;;5.63;100.00;96298.34;4967069;28;20017;-51
2022/11/13 02:23:26;;;;;;;;;;;10.40;70.30;;;5.63;100.00;96290.41;4984864;28;19909;-55
2022/11/13 02:26:04;;;;;;;;;;;10.40;70.30;;;5.64;100.00;96292.84;4988188;28;19955;-53
2022/11/13 02:28:29;;;;;;;;;;;10.40;70.20;;;5.62;100.00;96292.25;5008163;28;19913;-52
2022/11/13 02:30:55;;;;;;;;;;;10.40;70.20;;;5.64;100.00;96292.03;4985031;28;20281;-50
2022/11/13 02:33:32;;;;;;;;;;;10.50;70.20;;;5.65;100.00;96291.03;4975191;28;19919;-55
2022/11/13 02:35:59;;;;;;;;;;;10.50;70.10;;;5.66;100.00;96290.78;4975538;28;20396;-53
2022/11/13 02:38:24;;;;;;;;;;;10.50;70.10;;;5.65;100.00;96285.72;4991559;28;19917;-56
2022/11/13 02:40:53;;;;;;;;;;;10.50;70.00;;;5.65;100.00;96283.09;4975253;28;20637;-53
2022/11/13 02:43:19;;;;;;;;;;;10.50;70.00;;;5.60;100.00;96275.78;4974469;28;20446;-52
2022/11/13 02:45:45;;;;;;;;;;;10.50;70.00;;;5.61;100.00;96276.59;4992290;28;19917;-52
2022/11/13 02:48:10;;;;;;;;;;;10.50;70.00;;;5.58;100.00;96267.28;4975122;28;19964;-49
2022/11/13 02:50:37;;;;;;;;;;;10.40;69.90;;;5.56;100.00;96267.50;5002651;28;19913;-51
2022/11/13 02:53:04;;;;;;;;;;;10.50;70.00;;;5.55;100.00;96265.09;5010957;28;19909;-52
2022/11/13 02:55:30;;;;;;;;;;;10.40;69.90;;;5.57;100.00;96257.72;5002342;28;19910;-57
2022/11/13 02:58:05;;;;;;;;;;;10.40;70.00;;;5.49;100.00;96252.72;4959034;28;19909;-50
2022/11/13 03:00:31;;;;;;;;;;;10.40;69.90;;;5.45;100.00;96251.53;4990692;28;19959;-56
2022/11/13 03:03:02;;;;;;;;;;;10.40;70.00;;;5.44;100.00;96249.91;4992369;28;19949;-51
2022/11/13 03:05:28;;;;;;;;;;;10.40;70.00;;;5.51;100.00;96245.38;4974519;28;19913;-56
2022/11/13 03:07:54;;;;;;;;;;;10.30;70.00;;;5.49;100.00;96236.88;4973650;28;20376;-49
2022/11/13 03:10:19;;;;;;;;;;;10.30;70.10;;;5.44;100.00;96239.34;4974623;28;19992;-48
2022/11/13 03:12:47;;;;;;;;;;;10.30;70.10;;;5.45;100.00;96246.22;4991357;28;19910;-50
2022/11/13 03:15:19;;;;;;;;;;;10.30;70.00;;;5.44;100.00;96248.06;5005285;28;19996;-49
2022/11/13 03:17:46;;;;;;;;;;;10.30;70.10;;;5.42;100.00;96236.09;5011630;28;20126;-55
2022/11/13 03:20:12;;;;;;;;;;;10.30;70.10;;;5.40;100.00;96238.16;4995198;28;19909;-49
2022/11/13 03:22:50;;;;;;;;;;;10.30;70.10;;;5.45;100.00;96244.44;4991987;28;20425;-55
2022/11/13 03:25:18;;;;;;;;;;;10.30;70.10;;;5.47;100.00;96239.72;4989913;28;20341;-53
2022/11/13 03:27:57;;;;;;;;;;;10.30;70.20;;;5.50;100.00;96241.94;4958379;28;19913;-48
2022/11/13 03:30:22;;;;;;;;;;;10.30;70.20;;;5.53;100.00;96240.69;5017785;23;19994;-49
2022/11/13 03:32:55;;;;;;;;;;;10.30;70.30;;;5.54;100.00;96237.00;4992821;28;19921;-55
2022/11/13 03:35:23;;;;;;;;;;;10.30;70.30;;;5.51;100.00;96240.88;4993350;28;19955;-52
2022/11/13 03:37:49;;;;;;;;;;;10.30;70.20;;;5.50;100.00;96247.22;4992396;28;19920;-55
2022/11/13 03:40:16;;;;;;;;;;;10.30;70.20;;;5.49;100.00;96231.59;4981564;28;19912;-51
2022/11/13 03:42:42;;;;;;;;;;;10.30;70.10;;;5.49;100.00;96228.94;4994550;28;19913;-50
2022/11/13 03:45:08;;;;;;;;;;;10.30;70.10;;;5.51;100.00;96226.88;5013191;28;19916;-51
2022/11/13 03:47:34;;;;;;;;;;;10.40;70.10;;;5.55;100.00;96222.78;5012781;28;19938;-52
2022/11/13 03:50:03;;;;;;;;;;;10.40;70.10;;;5.54;100.00;96226.44;5012426;28;19913;-51
2022/11/13 03:52:28;;;;;;;;;;;10.30;70.10;;;5.47;100.00;96223.88;5009906;28;19913;-54
2022/11/13 03:54:54;;;;;;;;;;;10.40;70.10;;;5.44;100.00;96223.50;4989907;28;19924;-54
2022/11/13 03:57:20;;;;;;;;;;;10.40;70.00;;;5.43;100.00;96220.03;4988016;28;19913;-51
2022/11/13 03:59:51;;;;;;;;;;;10.30;70.00;;;5.46;100.00;96213.53;5010926;28;19909;-54
2022/11/13 04:02:23;;;;;;;;;;;10.30;70.00;;;5.48;100.00;96214.91;4992242;28;19909;-51
2022/11/13 04:04:51;;;;;;;;;;;10.30;70.10;;;5.48;100.00;96214.09;4973511;28;19909;-51
2022/11/13 04:07:17;;;;;;;;;;;10.30;70.10;;;5.46;100.00;96206.41;4988103;28;19960;-52
2022/11/13 04:09:43;;;;;;;;;;;10.30;70.10;;;5.40;100.00;96207.25;5010872;28;19941;-53
2022/11/13 04:12:09;;;;;;;;;;;10.30;70.10;;;5.39;100.00;96202.19;5009711;28;19919;-53
2022/11/13 04:14:34;;;;;;;;;;;10.30;70.00;;;5.36;100.00;96198.16;5009771;28;20354;-55
2022/11/13 04:17:00;;;;;;;;;;;10.30;70.00;;;5.37;100.00;96201.59;4992445;28;20553;-54
2022/11/13 04:19:29;;;;;;;;;;;10.30;70.00;;;5.33;100.00;96190.66;4986018;28;20334;-54
2022/11/13 04:21:55;;;;;;;;;;;10.30;69.90;;;5.35;100.00;96191.25;5007455;28;19909;-56
2022/11/13 04:24:23;;;;;;;;;;;10.30;69.90;;;5.33;100.00;96191.47;4989984;28;19913;-53
2022/11/13 04:26:49;;;;;;;;;;;10.20;69.80;;;5.32;100.00;96181.91;4972462;28;19917;-54
2022/11/13 04:29:15;;;;;;;;;;;10.20;69.90;;;5.27;100.00;96181.75;5010539;28;20303;-54
2022/11/13 04:31:50;;;;;;;;;;;10.10;69.90;;;5.24;100.00;96179.56;5011630;28;20290;-54
2022/11/13 04:34:21;;;;;;;;;;;10.10;69.90;;;5.19;100.00;96183.88;4977291;28;19910;-55
2022/11/13 04:36:53;;;;;;;;;;;10.10;69.90;;;5.17;100.00;96181.44;5011388;28;20390;-51
2022/11/13 04:39:25;;;;;;;;;;;10.00;69.90;;;5.15;100.00;96175.56;5014436;28;20271;-55
2022/11/13 04:44:44;;;;;;;;;;;10.00;70.10;;;5.15;100.00;96177.41;4993347;28;19928;-52
2022/11/13 04:47:11;;;;;;;;;;;10.00;70.10;;;5.06;100.00;96175.03;4996242;28;19917;-49
2022/11/13 04:49:37;;;;;;;;;;;10.00;70.10;;;5.03;100.00;96167.53;4992604;28;19910;-51
2022/11/13 04:52:05;;;;;;;;;;;9.90;70.10;;;5.03;100.00;96166.72;5000786;28;19963;-51
2022/11/13 04:54:31;;;;;;;;;;;9.90;70.10;;;5.03;100.00;96164.88;5008807;28;19932;-55
2022/11/13 04:56:57;;;;;;;;;;;9.80;70.10;;;5.02;100.00;96170.41;4992917;28;19909;-51
2022/11/13 04:59:26;;;;;;;;;;;9.80;70.10;;;4.98;100.00;96167.38;5012296;28;19992;-50
2022/11/13 05:01:54;;;;;;;;;;;9.80;70.10;;;4.94;100.00;96168.81;4991946;28;19909;-49
2022/11/13 05:04:26;;;;;;;;;;;9.80;70.20;;;4.97;100.00;96162.28;5015098;28;20003;-50
2022/11/13 05:06:54;;;;;;;;;;;9.80;70.20;;;4.94;100.00;96176.72;5011488;28;22953;-50
2022/11/13 05:09:25;;;;;;;;;;;9.70;70.20;;;4.86;100.00;96171.72;5014037;28;19923;-50
2022/11/13 05:11:51;;;;;;;;;;;9.80;70.20;;;4.82;100.00;96171.31;5013432;28;20363;-54
2022/11/13 05:14:29;;;;;;;;;;;9.70;70.10;;;4.79;100.00;96169.09;5020021;28;20290;-49
2022/11/13 05:16:55;;;;;;;;;;;9.70;70.10;;;4.77;100.00;96165.91;5015475;28;19958;-51
2022/11/13 05:19:21;;;;;;;;;;;9.70;70.10;;;4.80;100.00;96167.31;5008572;28;19960;-50
2022/11/13 05:21:49;;;;;;;;;;;9.60;70.10;;;4.76;100.00;96161.63;5028732;28;19958;-51
2022/11/13 05:24:15;;;;;;;;;;;9.60;70.20;;;4.73;100.00;96155.97;5033205;28;20428;-50
2022/11/13 05:26:41;;;;;;;;;;;9.60;70.20;;;4.77;100.00;96152.69;4996369;28;20320;-51
2022/11/13 05:29:10;;;;;;;;;;;9.60;70.20;;;4.77;100.00;96147.41;4992548;28;19959;-49
2022/11/13 05:31:38;;;;;;;;;;;9.60;70.30;;;4.81;100.00;96143.31;5013621;28;19917;-51
2022/11/13 05:34:10;;;;;;;;;;;9.60;70.30;;;4.80;100.00;96138.28;5015373;28;19930;-49
2022/11/13 05:36:36;;;;;;;;;;;9.60;70.40;;;4.77;100.00;96139.50;5032761;28;19912;-51
2022/11/13 05:39:03;;;;;;;;;;;9.60;70.40;;;4.78;100.00;96142.94;5012824;28;19913;-50
2022/11/13 05:41:32;;;;;;;;;;;9.60;70.40;;;4.75;100.00;96138.91;5012985;28;20196;-49
2022/11/13 05:43:58;;;;;;;;;;;9.60;70.40;;;4.72;100.00;96133.25;5010736;28;19915;-50
2022/11/13 05:46:27;;;;;;;;;;;9.60;70.40;;;4.71;100.00;96127.16;4994450;28;19936;-53
2022/11/13 05:49:00;;;;;;;;;;;9.50;70.30;;;4.69;100.00;96117.84;4992851;28;20564;-52
2022/11/13 05:51:29;;;;;;;;;;;9.50;70.30;;;4.69;100.00;96112.56;5010249;28;19909;-50
2022/11/13 05:53:57;;;;;;;;;;;9.60;70.40;;;4.61;100.00;96117.06;4992267;28;20449;-51
2022/11/13 05:56:35;;;;;;;;;;;9.50;70.40;;;4.61;100.00;96119.72;4990792;28;20019;-49
2022/11/13 05:59:07;;;;;;;;;;;9.50;70.30;;;4.66;100.00;96105.06;5006303;28;19909;-51
2022/11/13 06:01:37;;;;;;;;;;;9.50;70.40;;;4.66;100.00;96112.97;5011210;28;19913;-51
2022/11/13 06:04:05;;;;;;;;;;;9.50;70.40;;;4.65;100.00;96106.91;4993279;28;19924;-49
2022/11/13 06:06:32;;;;;;;;;;;9.50;70.40;;;4.64;100.00;96106.09;4991418;28;19910;-56
2022/11/13 06:09:05;;;;;;;;;;;9.40;70.40;;;4.58;100.00;96098.22;5009359;28;20338;-50
2022/11/13 06:11:32;;;;;;;;;;;9.50;70.40;;;4.52;100.00;96101.72;5014258;28;19909;-52
2022/11/13 06:13:58;;;;;;;;;;;9.40;71.10;;;4.49;100.00;96099.50;5002938;28;19913;-55
2022/11/13 06:16:33;;;;;;;;;;;9.40;70.30;;;4.50;100.00;96106.41;5012054;28;19916;-51
2022/11/13 06:19:07;;;;;;;;;;;9.40;70.30;;;4.53;100.00;96104.13;5011744;28;19917;-51
2022/11/13 06:21:38;;;;;;;;;;;9.40;70.40;;;4.53;100.00;96105.97;5005996;28;20461;-51
2022/11/13 06:24:05;;;;;;;;;;;9.40;70.50;;;4.53;100.00;96105.97;5014438;28;19909;-50
2022/11/13 06:26:36;;;;;;;;;;;9.40;70.50;;;4.52;100.00;96096.44;4994610;28;19917;-51
2022/11/13 06:29:13;;;;;;;;;;;9.40;70.50;;;4.52;100.00;96099.09;5011311;28;20355;-54
2022/11/13 06:31:39;;;;;;;;;;;9.40;70.60;;;4.52;100.00;96091.97;4987975;28;19917;-50
2022/11/13 06:34:11;;;;;;;;;;;9.40;70.60;;;4.50;100.00;96101.91;4994146;28;19974;-48
2022/11/13 06:36:37;;;;;;;;;;;9.40;70.60;;;4.52;100.00;96097.25;5010684;28;19909;-53
2022/11/13 06:39:08;;;;;;;;;;;9.40;70.60;;;4.54;100.00;96089.91;5002906;28;19932;-52
2022/11/13 06:41:34;;;;;;;;;;;9.40;70.60;;;4.48;100.00;96095.22;4991377;28;19955;-51
2022/11/13 06:44:00;;;;;;;;;;;9.40;70.60;;;4.49;100.00;96087.13;4998136;28;20351;-50
2022/11/13 06:46:28;;;;;;;;;;;9.40;70.60;;;4.52;100.00;96085.91;4990918;28;20296;-50
2022/11/13 06:48:54;;;;;;;;;;;9.40;70.60;;;4.53;100.00;96090.94;4983992;28;20019;-48
2022/11/13 06:51:26;;;;;;;;;;;9.40;70.60;;;4.54;100.00;96087.28;4994385;28;20087;-49
2022/11/13 06:53:53;;;;;;;;;;;9.40;70.60;;;4.57;100.00;96086.03;4993544;28;20291;-52
2022/11/13 06:56:20;;;;;;;;;;;9.40;70.60;;;4.54;100.00;96082.00;4989299;28;19909;-49
2022/11/13 06:58:46;;;;;;;;;;;9.40;70.60;;;4.56;100.00;96084.44;4983854;28;19937;-54
2022/11/13 07:01:19;;;;;;;;;;;9.40;70.60;;;4.55;100.00;96083.63;5009691;28;19954;-50
2022/11/13 07:03:48;;;;;;;;;;;9.40;70.60;;;4.56;100.00;96087.88;4974774;28;19913;-49
2022/11/13 07:06:18;;;;;;;;;;;9.40;70.60;;;4.60;100.00;96094.34;4998409;28;19909;-54
2022/11/13 07:08:45;;;;;;;;;;;9.40;70.60;;;4.62;100.00;96086.22;4974264;28;19956;-49
2022/11/13 07:11:15;;;;;;;;;;;9.40;70.70;;;4.63;100.00;96098.38;5010379;28;19909;-54
2022/11/13 07:13:42;;;;;;;;;;;9.50;70.70;;;4.55;100.00;96098.66;4991000;28;19913;-53
2022/11/13 07:16:10;;;;;;;;;;;9.50;70.60;;;4.55;100.00;96096.81;4990348;28;20346;-52
2022/11/13 07:18:37;;;;;;;;;;;9.50;70.60;;;4.54;100.00;96102.28;4987276;28;20283;-53
2022/11/13 07:21:06;;;;;;;;;;;9.50;70.50;;;4.49;100.00;96104.78;5002984;28;20447;-51
2022/11/13 07:23:39;;;;;;;;;;;9.50;70.40;;;4.52;100.00;96101.72;4924919;28;20888;-48
2022/11/13 07:26:05;;;;;;;;;;;9.50;70.40;;;4.54;100.00;96092.53;5013921;28;19996;-50
2022/11/13 07:28:31;;;;;;;;;;;9.50;70.40;;;4.58;100.00;96082.41;5014073;28;19925;-51
2022/11/13 07:30:59;;;;;;;;;;;9.50;70.50;;;4.49;100.00;96083.69;5018835;28;19921;-50
2022/11/13 07:33:25;;;;;;;;;;;9.50;70.50;;;4.52;100.00;96086.69;5011226;28;20294;-51
2022/11/13 07:35:54;;;;;;;;;;;9.50;70.50;;;4.55;100.00;96086.28;5010912;28;20044;-51
2022/11/13 07:38:20;;;;;;;;;;;9.50;70.50;;;4.58;100.00;96074.47;5009975;28;20350;-51
2022/11/13 07:40:46;;;;;;;;;;;9.60;70.50;;;4.55;100.00;96067.81;5010984;28;19909;-52
2022/11/13 07:43:12;;;;;;;;;;;9.60;70.50;;;4.57;100.00;96071.00;4996120;28;22781;-52
2022/11/13 07:45:38;;;;;;;;;;;9.60;70.40;;;4.66;100.00;96066.28;5011068;28;20346;-49
2022/11/13 07:48:05;;;;;;;;;;;9.70;70.40;;;4.63;100.00;96064.06;5010975;28;19920;-48
2022/11/13 07:50:34;;;;;;;;;;;9.70;70.40;;;4.64;100.00;96061.22;5019915;28;19909;-52
2022/11/13 07:53:07;;;;;;;;;;;9.80;70.40;;;4.70;100.00;96059.56;5011211;28;19945;-51
2022/11/13 07:55:46;;;;;;;;;;;9.80;70.30;;;4.71;100.00;96060.38;4999850;28;20000;-49
2022/11/13 07:58:13;;;;;;;;;;;9.80;70.20;;;4.72;100.00;96052.22;5010897;28;19915;-51
2022/11/13 08:00:39;;;;;;;;;;;9.90;70.20;;;4.76;100.00;96048.13;5010522;28;19909;-51
2022/11/13 08:03:12;;;;;;;;;;;9.90;70.20;;;4.78;100.00;96050.56;5010449;28;19909;-52
2022/11/13 08:05:38;;;;;;;;;;;9.90;70.10;;;4.80;100.00;96053.81;5008934;28;20013;-55
2022/11/13 08:08:05;;;;;;;;;;;9.90;70.10;;;4.81;100.00;96050.94;5005248;28;20015;-51
2022/11/13 08:10:31;;;;;;;;;;;10.00;70.00;;;4.83;100.00;96053.38;5009373;28;20437;-51
2022/11/13 08:13:05;;;;;;;;;;;10.00;70.00;;;4.88;100.00;96051.69;5008466;28;20040;-51
2022/11/13 08:15:32;;;;;;;;;;;10.00;69.90;;;4.86;100.00;96061.66;5025407;28;19924;-53
2022/11/13 08:18:01;;;;;;;;;;;10.00;69.90;;;4.86;100.00;96056.38;5009871;28;19909;-51
2022/11/13 08:20:29;;;;;;;;;;;10.00;69.90;;;4.90;100.00;96048.84;4986250;28;19945;-49
2022/11/13 08:22:57;;;;;;;;;;;10.00;69.90;;;4.93;100.00;96048.41;4993218;28;19909;-49
2022/11/13 08:25:23;;;;;;;;;;;10.00;69.90;;;4.98;100.00;96045.94;5009426;28;19913;-49
2022/11/13 08:27:53;;;;;;;;;;;10.10;70.00;;;5.00;100.00;96043.06;5012590;28;20007;-51
2022/11/13 08:30:27;;;;;;;;;;;10.10;70.00;;;4.98;100.00;96043.28;5003261;28;19921;-52
2022/11/13 08:32:53;;;;;;;;;;;10.10;69.90;;;5.02;100.00;96049.75;5037732;28;19915;-54
2022/11/13 08:35:22;;;;;;;;;;;10.10;69.90;;;5.00;100.00;96049.13;5029820;28;19913;-54
2022/11/13 08:38:07;;;;;;;;;;;10.20;69.90;;;4.91;100.00;96058.34;4983168;28;19933;-52
2022/11/13 08:40:36;;;;;;;;;;;10.20;69.70;;;4.87;100.00;96050.06;5006871;28;19909;-52
2022/11/13 08:43:05;;;;;;;;;;;10.20;69.60;;;4.91;100.00;96045.16;5008599;28;19916;-51
2022/11/13 08:45:31;;;;;;;;;;;10.10;69.50;;;4.93;100.00;96044.97;4978726;28;20283;-52
2022/11/13 08:48:01;;;;;;;;;;;10.20;69.70;;;4.92;100.00;96056.53;4997543;28;19966;-52
2022/11/13 08:50:28;;;;;;;;;;;10.20;69.60;;;4.98;100.00;96048.56;4997073;28;19959;-52
2022/11/13 08:52:56;;;;;;;;;;;10.20;69.60;;;5.00;100.00;96048.34;5008898;28;20322;-49
2022/11/13 08:55:25;;;;;;;;;;;10.20;69.70;;;4.99;100.00;96034.31;5004540;28;20287;-49
2022/11/13 08:58:01;;;;;;;;;;;10.20;69.60;;;5.08;100.00;96026.94;4992772;28;20405;-50
2022/11/13 09:00:29;;;;;;;;;;;10.20;69.60;;;5.14;100.00;96019.94;5005998;28;19917;-49
2022/11/13 09:03:00;;;;;;;;;;;10.20;69.70;;;5.16;100.00;96024.00;4991567;28;19936;-49
2022/11/13 09:05:26;;;;;;;;;;;10.30;69.80;;;5.23;100.00;96022.09;5019987;28;19913;-50
2022/11/13 09:08:00;;;;;;;;;;;10.30;69.70;;;5.27;100.00;96007.44;4978438;28;19919;-54
2022/11/13 09:10:27;;;;;;;;;;;10.40;69.70;;;5.34;100.00;96021.34;5006354;28;20433;-49
2022/11/13 09:13:01;;;;;;;;;;;10.50;69.80;;;5.39;100.00;96025.16;5003452;28;19920;-50
2022/11/13 09:15:29;;;;;;;;;;;10.50;69.70;;;5.31;100.00;96016.50;5006448;28;19912;-49
2022/11/13 09:18:00;;;;;;;;;;;10.60;69.60;;;5.33;100.00;96003.91;4997082;28;19940;-52
2022/11/13 09:20:28;;;;;;;;;;;10.60;69.60;;;5.38;100.00;95991.84;4983602;28;20007;-53
2022/11/13 09:23:01;;;;;;;;;;;10.70;69.70;;;5.44;100.00;95983.84;5006449;28;19967;-48
2022/11/13 09:25:29;;;;;;;;;;;10.70;69.50;;;5.49;100.00;95996.41;5010505;28;19959;-49
2022/11/13 09:27:59;;;;;;;;;;;10.80;69.40;;;5.44;100.00;95994.41;5011102;28;19923;-51
2022/11/13 09:30:26;;;;;;;;;;;10.80;69.30;;;5.43;100.00;96003.38;5014276;23;20153;-55
2022/11/13 09:32:57;;;;;;;;;;;10.90;69.20;;;5.42;100.00;96019.44;5010512;28;20281;-54
2022/11/13 09:35:35;;;;;;;;;;;10.90;69.00;;;5.41;100.00;96016.00;5012692;28;19909;-51
2022/11/13 09:38:11;;;;;;;;;;;10.80;68.90;;;5.43;100.00;96008.66;5009284;28;19916;-53
2022/11/13 09:40:52;;;;;;;;;;;10.80;68.90;;;5.48;100.00;96008.78;5000209;28;19914;-53
2022/11/13 09:43:49;;;;;;;;;;;10.80;69.00;;;5.53;100.00;96006.31;4996931;28;19909;-48
2022/11/13 09:46:36;;;;;;;;;;;10.80;69.10;;;5.47;100.00;95980.75;4996224;28;20288;-49
2022/11/13 09:49:29;;;;;;;;;;;10.80;69.10;;;5.53;100.00;95961.38;4995162;28;20018;-49
2022/11/13 09:52:01;;;;;;;;;;;10.80;69.20;;;5.55;100.00;95980.47;4984578;28;19916;-51
2022/11/13 09:54:27;;;;;;;;;;;10.90;69.30;;;5.52;100.00;96002.06;5002285;28;19956;-50
2022/11/13 09:57:32;;;;;;;;;;;10.90;69.20;;;5.49;100.00;96007.78;5010842;28;19913;-53
2022/11/13 10:00:04;;;;;;;;;;;10.90;69.00;;;5.45;100.00;96008.44;4992400;28;19913;-52
2022/11/13 10:03:20;;;;;;;;;;;10.90;68.90;;;5.31;100.00;96013.06;5014214;28;19939;-52
2022/11/13 10:05:55;;;;;;;;;;;10.90;68.80;;;5.32;100.00;95996.19;5004872;28;20040;-53
2022/11/13 10:08:44;;;;;;;;;;;10.80;69.50;;;5.39;100.00;95996.09;5017882;28;19924;-50
2022/11/13 10:11:36;;;;;;;;;;;10.80;68.90;;;5.41;100.00;95992.22;5014111;28;19944;-48
2022/11/13 10:14:46;;;;;;;;;;;10.80;69.00;;;5.50;100.00;95980.31;4981497;28;19913;-49
2022/11/13 10:17:40;;;;;;;;;;;10.80;69.10;;;5.54;100.00;95984.13;4969357;28;20313;-55
2022/11/13 10:20:34;;;;;;;;;;;10.80;69.20;;;5.52;100.00;95982.75;5005131;28;20008;-48
2022/11/13 10:23:15;;;;;;;;;;;10.80;69.10;;;5.52;100.00;95967.69;5018551;28;19909;-55
2022/11/13 10:25:44;;;;;;;;;;;10.90;69.10;;;5.51;100.00;95968.72;5015593;28;19944;-50
2022/11/13 10:28:24;;;;;;;;;;;10.90;69.10;;;5.53;100.00;95958.72;5000651;28;20268;-53
2022/11/13 10:30:50;;;;;;;;;;;10.90;69.00;;;5.56;100.00;95968.06;4991525;28;20283;-53
2022/11/13 10:33:22;;;;;;;;;;;10.90;68.90;;;5.60;100.00;95963.13;4976623;28;19913;-49
2022/11/13 10:36:23;;;;;;;;;;;11.00;69.00;;;5.65;100.00;95960.63;4954359;28;20372;-50
2022/11/13 10:39:06;;;;;;;;;;;11.00;69.00;;;5.62;100.00;95964.53;4963923;28;20004;-50
2022/11/13 10:41:43;;;;;;;;;;;11.10;69.00;;;5.70;100.00;95958.94;4988316;28;20003;-52
2022/11/13 10:44:34;;;;;;;;;;;11.00;68.90;;;5.65;100.00;95958.00;4989353;28;19948;-54
2022/11/13 10:47:22;;;;;;;;;;;11.00;68.80;;;5.62;100.00;95953.16;4990759;28;20264;-49
2022/11/13 10:49:51;;;;;;;;;;;11.00;68.70;;;5.66;100.00;95954.31;4984490;28;19967;-49
2022/11/13 10:52:27;;;;;;;;;;;11.00;68.70;;;5.60;100.00;95937.50;4971054;28;19914;-49
2022/11/13 10:55:34;;;;;;;;;;;11.00;68.70;;;5.67;100.00;95935.59;4972495;28;20072;-50
2022/11/13 10:58:20;;;;;;;;;;;11.00;68.80;;;5.66;100.00;95936.59;4972821;28;20477;-54
2022/11/13 11:00:48;;;;;;;;;;;11.00;68.90;;;5.59;100.00;95945.66;4972451;28;19910;-50
2022/11/13 11:03:23;;;;;;;;;;;11.00;68.80;;;5.52;100.00;95943.91;4983053;28;19914;-49
2022/11/13 11:06:00;;;;;;;;;;;11.00;68.80;;;5.52;100.00;95943.91;4966807;28;19914;-49
2022/11/13 11:08:33;;;;;;;;;;;10.90;68.60;;;5.51;100.00;95946.78;4984277;28;19920;-48
2022/11/13 11:14:30;;;;;;;;;;;10.90;68.70;;;5.60;100.00;95939.34;4972830;28;19928;-51
2022/11/13 11:17:00;;;;;;;;;;;10.90;68.90;;;5.62;100.00;95938.09;4988146;28;19915;-48
2022/11/13 11:19:35;;;;;;;;;;;10.90;68.90;;;5.60;100.00;95936.69;4961332;28;19914;-48
2022/11/13 11:22:14;;;;;;;;;;;10.90;68.90;;;5.57;100.00;95928.19;4967763;28;19914;-52
2022/11/13 11:25:25;;;;;;;;;;;10.90;69.70;;;5.54;100.00;95928.63;4969604;28;19910;-52
2022/11/13 11:28:12;;;;;;;;;;;10.80;68.80;;;5.52;100.00;95921.97;4943332;28;19918;-52
2022/11/13 11:31:15;;;;;;;;;;;10.80;68.80;;;5.46;100.00;95907.00;4985814;28;19966;-51
2022/11/13 11:34:17;;;;;;;;;;;10.80;68.90;;;5.51;100.00;95896.56;4996583;28;19945;-48
2022/11/13 11:36:54;;;;;;;;;;;10.80;68.90;;;5.58;100.00;95886.72;5006415;28;20395;-55
2022/11/13 11:40:02;;;;;;;;;;;10.80;68.90;;;5.65;100.00;95882.13;5003310;28;20393;-49
2022/11/13 11:42:52;;;;;;;;;;;10.90;69.00;;;5.63;100.00;95893.97;4999940;28;20291;-52
2022/11/13 11:45:44;;;;;;;;;;;10.90;69.00;;;5.66;100.00;95896.16;4992153;28;19909;-53
2022/11/13 11:48:25;;;;;;;;;;;10.90;69.00;;;5.70;100.00;95890.22;4986250;28;19923;-47